Helvetia, Oregon
Current Conditions -  °F | °C
As of 8:53 PM on Sunday 21 Dec 2014 (Local Time) from KHIO Reporting Station
Overcast Overcast  
Wind Chill: 51°   Ceiling: 5000
Heat Index: 51°   Visibility: 10mi
Dew Point: 49°   Wind: 5mph
Humidity: 92%   Direction: 170°S
Pressure: 30.15"   Gusts: NA
Location:  45.6165°N, 122.954°W
Report Text: KHIO 220453Z 17004KT 10SM FEW044 BKN050 OVC070 11/09 A3015 RMK AO2 SLP209 T01060094
Loading
Personal Weather Stations






























Interactive Weather Map New forecast layout! Learn more

10-Day Weather Forecast

Advertisements
Track Severe Weather on mobile